sensor_id;sensor_type;location;lat;lon;timestamp;pressure;altitude;pressure_sealevel;temperature;humidity
53522;BME280;39398;48.382;9.802;2023-11-21T00:01:39;93282.13;;;5.61;81.42
53522;BME280;39398;48.382;9.802;2023-11-21T00:06:41;93280.28;;;5.55;81.23
53522;BME280;39398;48.382;9.802;2023-11-21T00:11:42;93285.88;;;5.58;82.05
53522;BME280;39398;48.382;9.802;2023-11-21T00:16:45;93276.91;;;5.54;81.76
53522;BME280;39398;48.382;9.802;2023-11-21T00:21:47;93276.34;;;5.59;81.73
53522;BME280;39398;48.382;9.802;2023-11-21T00:26:48;93263.47;;;5.59;81.58
53522;BME280;39398;48.382;9.802;2023-11-21T00:31:52;93268.69;;;5.66;82.71
53522;BME280;39398;48.382;9.802;2023-11-21T00:36:54;93264.50;;;5.65;82.19
53522;BME280;39398;48.382;9.802;2023-11-21T00:41:55;93262.91;;;5.64;82.11
53522;BME280;39398;48.382;9.802;2023-11-21T00:46:58;93266.47;;;5.63;81.91
53522;BME280;39398;48.382;9.802;2023-11-21T00:52:00;93265.72;;;5.69;82.45
53522;BME280;39398;48.382;9.802;2023-11-21T00:57:01;93269.66;;;5.65;82.31
53522;BME280;39398;48.382;9.802;2023-11-21T01:02:04;93275.28;;;5.75;82.02
53522;BME280;39398;48.382;9.802;2023-11-21T01:07:06;93277.66;;;5.70;82.33
53522;BME280;39398;48.382;9.802;2023-11-21T01:12:08;93273.84;;;5.66;82.47
53522;BME280;39398;48.382;9.802;2023-11-21T01:17:11;93268.06;;;5.64;82.20
53522;BME280;39398;48.382;9.802;2023-11-21T01:22:13;93264.50;;;5.65;81.75
53522;BME280;39398;48.382;9.802;2023-11-21T01:27:14;93264.88;;;5.61;82.37
53522;BME280;39398;48.382;9.802;2023-11-21T01:32:17;93263.66;;;5.57;82.36
53522;BME280;39398;48.382;9.802;2023-11-21T01:37:19;93258.84;;;5.54;82.64
53522;BME280;39398;48.382;9.802;2023-11-21T01:42:21;93252.09;;;5.53;83.09
53522;BME280;39398;48.382;9.802;2023-11-21T01:47:24;93252.00;;;5.40;82.91
53522;BME280;39398;48.382;9.802;2023-11-21T01:52:25;93253.84;;;5.46;82.89
53522;BME280;39398;48.382;9.802;2023-11-21T01:57:28;93237.41;;;5.47;82.78
53522;BME280;39398;48.382;9.802;2023-11-21T02:02:31;93242.91;;;5.44;82.38
53522;BME280;39398;48.382;9.802;2023-11-21T02:07:32;93248.44;;;5.41;82.52
53522;BME280;39398;48.382;9.802;2023-11-21T02:12:34;93249.66;;;5.45;83.38
53522;BME280;39398;48.382;9.802;2023-11-21T02:17:37;93249.91;;;5.50;83.07
53522;BME280;39398;48.382;9.802;2023-11-21T02:22:40;93253.31;;;5.57;84.21
53522;BME280;39398;48.382;9.802;2023-11-21T02:27:43;93256.06;;;5.49;83.32
53522;BME280;39398;48.382;9.802;2023-11-21T02:32:45;93256.84;;;5.50;84.13
53522;BME280;39398;48.382;9.802;2023-11-21T02:37:50;93247.72;;;5.47;83.51
53522;BME280;39398;48.382;9.802;2023-11-21T02:42:53;93244.88;;;5.42;83.48
53522;BME280;39398;48.382;9.802;2023-11-21T02:47:54;93246.13;;;5.46;83.39
53522;BME280;39398;48.382;9.802;2023-11-21T02:52:56;93234.81;;;5.47;83.28
53522;BME280;39398;48.382;9.802;2023-11-21T02:57:59;93227.44;;;5.44;83.74
53522;BME280;39398;48.382;9.802;2023-11-21T03:03:01;93234.22;;;5.45;83.94
53522;BME280;39398;48.382;9.802;2023-11-21T03:08:02;93233.84;;;5.48;84.11
53522;BME280;39398;48.382;9.802;2023-11-21T03:13:05;93238.38;;;5.46;83.65
53522;BME280;39398;48.382;9.802;2023-11-21T03:18:07;93228.06;;;5.46;83.83
53522;BME280;39398;48.382;9.802;2023-11-21T03:23:09;93231.47;;;5.53;83.74
53522;BME280;39398;48.382;9.802;2023-11-21T03:28:12;93224.88;;;5.44;84.37
53522;BME280;39398;48.382;9.802;2023-11-21T03:33:14;93235.91;;;5.38;84.51
53522;BME280;39398;48.382;9.802;2023-11-21T03:38:15;93231.75;;;5.37;83.94
53522;BME280;39398;48.382;9.802;2023-11-21T03:43:18;93234.53;;;5.36;83.97
53522;BME280;39398;48.382;9.802;2023-11-21T03:48:20;93243.53;;;5.46;85.37
53522;BME280;39398;48.382;9.802;2023-11-21T03:53:21;93232.88;;;5.28;83.35
53522;BME280;39398;48.382;9.802;2023-11-21T03:58:24;93228.09;;;5.25;84.03
53522;BME280;39398;48.382;9.802;2023-11-21T04:03:26;93238.53;;;5.17;83.96
53522;BME280;39398;48.382;9.802;2023-11-21T04:08:28;93232.78;;;5.15;84.41
53522;BME280;39398;48.382;9.802;2023-11-21T04:13:31;93245.84;;;5.13;84.25
53522;BME280;39398;48.382;9.802;2023-11-21T04:18:33;93248.28;;;5.21;84.42
53522;BME280;39398;48.382;9.802;2023-11-21T04:23:35;93243.19;;;5.28;84.78
53522;BME280;39398;48.382;9.802;2023-11-21T04:28:38;93255.44;;;5.26;85.01
53522;BME280;39398;48.382;9.802;2023-11-21T04:33:39;93259.25;;;5.30;85.07
53522;BME280;39398;48.382;9.802;2023-11-21T04:38:41;93259.50;;;5.35;84.67
53522;BME280;39398;48.382;9.802;2023-11-21T04:43:45;93260.31;;;5.36;85.35
53522;BME280;39398;48.382;9.802;2023-11-21T04:48:47;93263.44;;;5.31;85.15
53522;BME280;39398;48.382;9.802;2023-11-21T04:53:49;93265.03;;;5.32;85.78
53522;BME280;39398;48.382;9.802;2023-11-21T04:58:53;93267.00;;;5.30;85.72
53522;BME280;39398;48.382;9.802;2023-11-21T05:03:54;93266.56;;;5.26;85.54
53522;BME280;39398;48.382;9.802;2023-11-21T05:08:56;93260.78;;;5.24;85.92
53522;BME280;39398;48.382;9.802;2023-11-21T05:13:59;93263.91;;;5.20;86.37
53522;BME280;39398;48.382;9.802;2023-11-21T05:19:01;93255.78;;;5.16;86.01
53522;BME280;39398;48.382;9.802;2023-11-21T05:24:03;93272.41;;;5.14;87.32
53522;BME280;39398;48.382;9.802;2023-11-21T05:29:06;93270.81;;;5.13;86.67
53522;BME280;39398;48.382;9.802;2023-11-21T05:34:07;93273.19;;;5.14;87.01
53522;BME280;39398;48.382;9.802;2023-11-21T05:39:09;93281.91;;;5.13;87.61
53522;BME280;39398;48.382;9.802;2023-11-21T05:44:12;93285.31;;;5.20;87.24
53522;BME280;39398;48.382;9.802;2023-11-21T05:49:13;93283.19;;;5.24;86.90
53522;BME280;39398;48.382;9.802;2023-11-21T05:54:15;93289.69;;;5.20;87.13
53522;BME280;39398;48.382;9.802;2023-11-21T05:59:18;93294.66;;;5.21;87.65
53522;BME280;39398;48.382;9.802;2023-11-21T06:04:23;93304.25;;;5.28;87.11
53522;BME280;39398;48.382;9.802;2023-11-21T06:09:25;93296.16;;;5.31;86.51
53522;BME280;39398;48.382;9.802;2023-11-21T06:14:28;93305.47;;;5.32;87.14
53522;BME280;39398;48.382;9.802;2023-11-21T06:19:30;93303.91;;;5.37;87.66
53522;BME280;39398;48.382;9.802;2023-11-21T06:24:32;93309.81;;;5.31;86.44
53522;BME280;39398;48.382;9.802;2023-11-21T06:29:35;93311.06;;;5.35;86.85
53522;BME280;39398;48.382;9.802;2023-11-21T06:34:36;93311.44;;;5.32;87.48
53522;BME280;39398;48.382;9.802;2023-11-21T06:39:38;93321.56;;;5.34;86.78
53522;BME280;39398;48.382;9.802;2023-11-21T06:44:41;93324.69;;;5.29;87.11
53522;BME280;39398;48.382;9.802;2023-11-21T06:49:43;93329.22;;;5.27;87.13
53522;BME280;39398;48.382;9.802;2023-11-21T06:54:45;93331.59;;;5.29;86.66
53522;BME280;39398;48.382;9.802;2023-11-21T06:59:48;93333.75;;;5.25;87.10
53522;BME280;39398;48.382;9.802;2023-11-21T07:04:50;93342.72;;;5.29;86.62
53522;BME280;39398;48.382;9.802;2023-11-21T07:09:51;93344.66;;;5.27;86.19
53522;BME280;39398;48.382;9.802;2023-11-21T07:14:54;93344.31;;;5.30;86.25
53522;BME280;39398;48.382;9.802;2023-11-21T07:19:56;93349.47;;;5.30;85.68
53522;BME280;39398;48.382;9.802;2023-11-21T07:24:58;93358.19;;;5.29;85.57
53522;BME280;39398;48.382;9.802;2023-11-21T07:30:01;93354.97;;;5.27;85.67
53522;BME280;39398;48.382;9.802;2023-11-21T07:35:03;93366.88;;;5.28;86.10
53522;BME280;39398;48.382;9.802;2023-11-21T07:40:06;93370.81;;;5.24;85.87
53522;BME280;39398;48.382;9.802;2023-11-21T07:45:09;93379.16;;;5.26;84.90
53522;BME280;39398;48.382;9.802;2023-11-21T07:50:11;93382.47;;;5.41;85.00
53522;BME280;39398;48.382;9.802;2023-11-21T07:55:13;93381.00;;;5.53;85.20
53522;BME280;39398;48.382;9.802;2023-11-21T08:00:17;93383.13;;;5.65;85.01
53522;BME280;39398;48.382;9.802;2023-11-21T08:05:18;93385.47;;;5.81;84.57
53522;BME280;39398;48.382;9.802;2023-11-21T08:10:32;93378.34;;;5.83;84.35
53522;BME280;39398;48.382;9.802;2023-11-21T08:15:35;93384.28;;;6.05;83.20
53522;BME280;39398;48.382;9.802;2023-11-21T08:20:37;93386.41;;;6.22;82.92
53522;BME280;39398;48.382;9.802;2023-11-21T08:25:38;93395.81;;;6.02;82.98
53522;BME280;39398;48.382;9.802;2023-11-21T08:30:42;93398.13;;;5.97;82.68
53522;BME280;39398;48.382;9.802;2023-11-21T08:35:43;93399.22;;;6.09;82.43
53522;BME280;39398;48.382;9.802;2023-11-21T08:40:45;93399.28;;;6.44;82.57
53522;BME280;39398;48.382;9.802;2023-11-21T08:45:48;93404.66;;;6.77;81.59
53522;BME280;39398;48.382;9.802;2023-11-21T08:50:50;93409.94;;;6.96;81.30
53522;BME280;39398;48.382;9.802;2023-11-21T08:55:51;93406.59;;;7.03;79.51
53522;BME280;39398;48.382;9.802;2023-11-21T09:00:54;93398.25;;;6.73;78.45
53522;BME280;39398;48.382;9.802;2023-11-21T09:05:56;93402.03;;;6.70;78.84
53522;BME280;39398;48.382;9.802;2023-11-21T09:10:58;93410.69;;;6.90;78.19
53522;BME280;39398;48.382;9.802;2023-11-21T09:16:01;93414.75;;;6.72;78.74
53522;BME280;39398;48.382;9.802;2023-11-21T09:21:02;93422.28;;;7.01;78.18
53522;BME280;39398;48.382;9.802;2023-11-21T09:26:04;93423.09;;;7.08;77.88
53522;BME280;39398;48.382;9.802;2023-11-21T09:31:07;93420.97;;;7.18;78.71
53522;BME280;39398;48.382;9.802;2023-11-21T09:36:11;93423.41;;;7.40;77.55
53522;BME280;39398;48.382;9.802;2023-11-21T09:41:20;93441.09;;;7.29;77.92
53522;BME280;39398;48.382;9.802;2023-11-21T09:46:25;93449.88;;;7.42;77.28
53522;BME280;39398;48.382;9.802;2023-11-21T09:51:29;93434.78;;;7.45;76.12
53522;BME280;39398;48.382;9.802;2023-11-21T09:56:32;93443.56;;;7.57;76.15
53522;BME280;39398;48.382;9.802;2023-11-21T10:01:36;93436.03;;;7.62;75.91
53522;BME280;39398;48.382;9.802;2023-11-21T10:06:38;93429.75;;;7.85;76.35
53522;BME280;39398;48.382;9.802;2023-11-21T10:11:41;93431.75;;;8.02;74.00
53522;BME280;39398;48.382;9.802;2023-11-21T10:16:45;93429.63;;;8.32;74.71
53522;BME280;39398;48.382;9.802;2023-11-21T10:21:47;93436.94;;;8.22;74.34
53522;BME280;39398;48.382;9.802;2023-11-21T10:26:49;93429.41;;;8.40;74.14
53522;BME280;39398;48.382;9.802;2023-11-21T10:31:56;93426.59;;;8.75;72.56
53522;BME280;39398;48.382;9.802;2023-11-21T10:36:58;93428.91;;;9.09;72.12
53522;BME280;39398;48.382;9.802;2023-11-21T10:41:59;93427.34;;;9.02;70.45
53522;BME280;39398;48.382;9.802;2023-11-21T10:47:03;93427.81;;;8.39;72.08
53522;BME280;39398;48.382;9.802;2023-11-21T10:52:04;93429.38;;;8.01;75.17
53522;BME280;39398;48.382;9.802;2023-11-21T10:57:06;93434.84;;;7.71;72.27
53522;BME280;39398;48.382;9.802;2023-11-21T11:02:19;93428.53;;;7.81;74.03
53522;BME280;39398;48.382;9.802;2023-11-21T11:07:25;93438.63;;;7.62;73.33
53522;BME280;39398;48.382;9.802;2023-11-21T11:12:28;93426.03;;;7.46;73.14
53522;BME280;39398;48.382;9.802;2023-11-21T11:17:31;93425.16;;;7.26;73.96
53522;BME280;39398;48.382;9.802;2023-11-21T11:22:37;93422.34;;;7.21;74.26
53522;BME280;39398;48.382;9.802;2023-11-21T11:27:48;93428.66;;;7.59;74.72
53522;BME280;39398;48.382;9.802;2023-11-21T11:32:59;93433.41;;;7.49;76.00
53522;BME280;39398;48.382;9.802;2023-11-21T11:38:06;93425.28;;;7.52;75.51
53522;BME280;39398;48.382;9.802;2023-11-21T11:43:08;93422.56;;;7.80;74.17
53522;BME280;39398;48.382;9.802;2023-11-21T11:48:37;93427.34;;;7.90;73.60
53522;BME280;39398;48.382;9.802;2023-11-21T11:53:40;93418.63;;;8.04;71.52
53522;BME280;39398;48.382;9.802;2023-11-21T11:58:42;93414.81;;;8.06;71.42
53522;BME280;39398;48.382;9.802;2023-11-21T12:04:24;93429.16;;;7.96;72.53
53522;BME280;39398;48.382;9.802;2023-11-21T12:09:26;93431.75;;;8.09;71.75
53522;BME280;39398;48.382;9.802;2023-11-21T12:14:28;93426.38;;;8.04;70.58
53522;BME280;39398;48.382;9.802;2023-11-21T12:19:31;93437.44;;;7.71;72.17
53522;BME280;39398;48.382;9.802;2023-11-21T12:24:33;93429.84;;;7.50;73.12
53522;BME280;39398;48.382;9.802;2023-11-21T12:29:35;93435.06;;;7.63;72.03
53522;BME280;39398;48.382;9.802;2023-11-21T12:34:38;93436.47;;;7.66;73.81
53522;BME280;39398;48.382;9.802;2023-11-21T12:39:39;93447.19;;;7.63;71.16
53522;BME280;39398;48.382;9.802;2023-11-21T12:44:41;93440.03;;;7.71;71.54
53522;BME280;39398;48.382;9.802;2023-11-21T12:49:44;93442.31;;;7.40;74.49
53522;BME280;39398;48.382;9.802;2023-11-21T12:54:46;93437.28;;;7.25;74.81
53522;BME280;39398;48.382;9.802;2023-11-21T12:59:47;93452.00;;;7.25;74.16
53522;BME280;39398;48.382;9.802;2023-11-21T13:04:53;93463.94;;;7.26;76.55
53522;BME280;39398;48.382;9.802;2023-11-21T13:09:54;93460.75;;;6.89;76.37
53522;BME280;39398;48.382;9.802;2023-11-21T13:14:56;93458.56;;;6.86;76.38
53522;BME280;39398;48.382;9.802;2023-11-21T13:19:59;93462.22;;;6.98;75.63
53522;BME280;39398;48.382;9.802;2023-11-21T13:25:01;93454.59;;;6.90;75.56
53522;BME280;39398;48.382;9.802;2023-11-21T13:30:03;93470.28;;;6.82;77.49
53522;BME280;39398;48.382;9.802;2023-11-21T13:35:07;93481.25;;;6.91;76.60
53522;BME280;39398;48.382;9.802;2023-11-21T13:40:09;93483.81;;;6.91;76.20
53522;BME280;39398;48.382;9.802;2023-11-21T13:45:10;93490.47;;;7.00;76.73
53522;BME280;39398;48.382;9.802;2023-11-21T13:50:14;93491.09;;;7.09;77.51
53522;BME280;39398;48.382;9.802;2023-11-21T13:55:15;93492.69;;;7.03;76.28
53522;BME280;39398;48.382;9.802;2023-11-21T14:00:17;93500.81;;;7.07;76.82
53522;BME280;39398;48.382;9.802;2023-11-21T14:05:20;93498.53;;;6.90;77.05
53522;BME280;39398;48.382;9.802;2023-11-21T14:10:22;93501.50;;;6.87;78.05
53522;BME280;39398;48.382;9.802;2023-11-21T14:15:23;93490.78;;;6.90;77.37
53522;BME280;39398;48.382;9.802;2023-11-21T14:20:26;93498.44;;;6.77;79.22
53522;BME280;39398;48.382;9.802;2023-11-21T14:25:28;93501.19;;;6.69;79.14
53522;BME280;39398;48.382;9.802;2023-11-21T14:30:30;93503.38;;;6.72;78.25
53522;BME280;39398;48.382;9.802;2023-11-21T14:35:33;93508.66;;;6.85;78.50
53522;BME280;39398;48.382;9.802;2023-11-21T14:40:34;93521.44;;;6.72;79.36
53522;BME280;39398;48.382;9.802;2023-11-21T14:45:36;93519.47;;;6.74;78.64
53522;BME280;39398;48.382;9.802;2023-11-21T14:50:39;93534.06;;;6.82;78.40
53522;BME280;39398;48.382;9.802;2023-11-21T14:55:41;93527.84;;;6.76;79.11
53522;BME280;39398;48.382;9.802;2023-11-21T15:00:43;93536.91;;;6.65;79.85
53522;BME280;39398;48.382;9.802;2023-11-21T15:05:46;93543.34;;;6.76;79.87
53522;BME280;39398;48.382;9.802;2023-11-21T15:10:48;93544.69;;;6.72;80.14
53522;BME280;39398;48.382;9.802;2023-11-21T15:15:51;93559.38;;;6.65;79.75
53522;BME280;39398;48.382;9.802;2023-11-21T15:20:55;93561.44;;;6.55;80.73
53522;BME280;39398;48.382;9.802;2023-11-21T15:25:57;93562.56;;;6.46;80.07
53522;BME280;39398;48.382;9.802;2023-11-21T15:30:58;93570.97;;;6.54;79.86
53522;BME280;39398;48.382;9.802;2023-11-21T15:36:01;93569.69;;;6.44;80.59
53522;BME280;39398;48.382;9.802;2023-11-21T15:41:03;93573.50;;;6.26;82.41
53522;BME280;39398;48.382;9.802;2023-11-21T15:46:05;93573.06;;;6.23;83.48
53522;BME280;39398;48.382;9.802;2023-11-21T15:51:08;93585.66;;;6.11;83.18
53522;BME280;39398;48.382;9.802;2023-11-21T15:56:10;93594.72;;;6.07;83.21
53522;BME280;39398;48.382;9.802;2023-11-21T16:01:12;93593.56;;;6.10;82.91
53522;BME280;39398;48.382;9.802;2023-11-21T16:06:15;93605.25;;;5.91;83.31
53522;BME280;39398;48.382;9.802;2023-11-21T16:11:16;93598.81;;;5.87;83.75
53522;BME280;39398;48.382;9.802;2023-11-21T16:16:21;93613.78;;;5.77;86.29
53522;BME280;39398;48.382;9.802;2023-11-21T16:21:24;93618.75;;;5.78;86.01
53522;BME280;39398;48.382;9.802;2023-11-21T16:26:25;93630.69;;;5.65;88.41
53522;BME280;39398;48.382;9.802;2023-11-21T16:31:27;93631.75;;;5.55;90.30
53522;BME280;39398;48.382;9.802;2023-11-21T16:36:31;93631.38;;;5.44;90.38
53522;BME280;39398;48.382;9.802;2023-11-21T16:41:32;93644.28;;;5.44;91.36
53522;BME280;39398;48.382;9.802;2023-11-21T16:46:34;93655.75;;;5.41;92.16
53522;BME280;39398;48.382;9.802;2023-11-21T16:51:37;93662.66;;;5.41;92.30
53522;BME280;39398;48.382;9.802;2023-11-21T16:56:38;93666.63;;;5.51;91.66
53522;BME280;39398;48.382;9.802;2023-11-21T17:01:40;93672.81;;;5.42;91.10
53522;BME280;39398;48.382;9.802;2023-11-21T17:06:43;93674.75;;;5.40;91.89
53522;BME280;39398;48.382;9.802;2023-11-21T17:11:46;93673.88;;;5.33;92.30
53522;BME280;39398;48.382;9.802;2023-11-21T17:16:49;93685.00;;;5.34;92.09
53522;BME280;39398;48.382;9.802;2023-11-21T17:21:52;93682.94;;;5.29;92.64
53522;BME280;39398;48.382;9.802;2023-11-21T17:26:54;93700.97;;;5.29;93.45
53522;BME280;39398;48.382;9.802;2023-11-21T17:31:56;93707.09;;;5.28;93.68
53522;BME280;39398;48.382;9.802;2023-11-21T17:36:59;93702.63;;;5.22;94.15
53522;BME280;39398;48.382;9.802;2023-11-21T17:42:00;93710.72;;;5.19;95.46
53522;BME280;39398;48.382;9.802;2023-11-21T17:47:02;93719.25;;;5.19;95.54
53522;BME280;39398;48.382;9.802;2023-11-21T17:52:06;93722.81;;;5.18;95.79
53522;BME280;39398;48.382;9.802;2023-11-21T17:57:07;93731.06;;;5.14;95.83
53522;BME280;39398;48.382;9.802;2023-11-21T18:02:09;93739.13;;;5.11;94.87
53522;BME280;39398;48.382;9.802;2023-11-21T18:07:12;93739.94;;;5.11;95.07
53522;BME280;39398;48.382;9.802;2023-11-21T18:12:14;93746.84;;;5.11;94.63
53522;BME280;39398;48.382;9.802;2023-11-21T18:17:15;93748.78;;;5.09;93.84
53522;BME280;39398;48.382;9.802;2023-11-21T18:22:18;93745.94;;;5.04;91.35
53522;BME280;39398;48.382;9.802;2023-11-21T18:27:20;93758.63;;;5.05;91.14
53522;BME280;39398;48.382;9.802;2023-11-21T18:32:22;93766.19;;;5.07;90.62
53522;BME280;39398;48.382;9.802;2023-11-21T18:37:25;93774.56;;;5.09;90.38
53522;BME280;39398;48.382;9.802;2023-11-21T18:42:27;93775.88;;;5.05;91.73
53522;BME280;39398;48.382;9.802;2023-11-21T18:47:28;93780.22;;;5.04;92.51
53522;BME280;39398;48.382;9.802;2023-11-21T18:52:31;93786.72;;;5.00;91.84
53522;BME280;39398;48.382;9.802;2023-11-21T18:57:33;93797.00;;;5.00;91.09
53522;BME280;39398;48.382;9.802;2023-11-21T19:02:34;93800.91;;;4.96;90.98
53522;BME280;39398;48.382;9.802;2023-11-21T19:07:38;93808.00;;;4.94;91.45
53522;BME280;39398;48.382;9.802;2023-11-21T19:12:39;93800.09;;;4.96;90.88
53522;BME280;39398;48.382;9.802;2023-11-21T19:17:41;93819.09;;;4.95;91.00
53522;BME280;39398;48.382;9.802;2023-11-21T19:22:44;93826.50;;;4.98;91.04
53522;BME280;39398;48.382;9.802;2023-11-21T19:27:45;93828.44;;;4.96;91.57
53522;BME280;39398;48.382;9.802;2023-11-21T19:32:47;93835.19;;;4.97;91.25
53522;BME280;39398;48.382;9.802;2023-11-21T19:37:50;93833.25;;;4.99;90.88
53522;BME280;39398;48.382;9.802;2023-11-21T19:42:52;93834.56;;;4.95;90.54
53522;BME280;39398;48.382;9.802;2023-11-21T19:47:53;93831.50;;;4.91;90.97
53522;BME280;39398;48.382;9.802;2023-11-21T19:52:57;93835.69;;;4.92;90.47
53522;BME280;39398;48.382;9.802;2023-11-21T19:57:58;93843.47;;;4.84;90.38
53522;BME280;39398;48.382;9.802;2023-11-21T20:03:00;93847.81;;;4.83;90.48
53522;BME280;39398;48.382;9.802;2023-11-21T20:08:03;93862.38;;;4.68;90.00
53522;BME280;39398;48.382;9.802;2023-11-21T20:13:05;93868.94;;;4.71;89.17
53522;BME280;39398;48.382;9.802;2023-11-21T20:18:09;93875.91;;;4.62;89.10
53522;BME280;39398;48.382;9.802;2023-11-21T20:23:12;93884.44;;;4.54;90.09
53522;BME280;39398;48.382;9.802;2023-11-21T20:28:13;93892.63;;;4.66;88.94
53522;BME280;39398;48.382;9.802;2023-11-21T20:33:15;93900.19;;;4.68;89.58
53522;BME280;39398;48.382;9.802;2023-11-21T20:38:18;93901.44;;;4.72;89.95
53522;BME280;39398;48.382;9.802;2023-11-21T20:43:20;93906.59;;;4.72;89.61
53522;BME280;39398;48.382;9.802;2023-11-21T20:48:22;93905.47;;;4.74;89.16
53522;BME280;39398;48.382;9.802;2023-11-21T20:53:25;93903.84;;;4.73;89.43
53522;BME280;39398;48.382;9.802;2023-11-21T20:58:27;93914.00;;;4.75;89.57
53522;BME280;39398;48.382;9.802;2023-11-21T21:03:28;93903.84;;;4.73;89.72
53522;BME280;39398;48.382;9.802;2023-11-21T21:08:31;93908.19;;;4.73;89.69
53522;BME280;39398;48.382;9.802;2023-11-21T21:13:33;93910.94;;;4.71;89.60
53522;BME280;39398;48.382;9.802;2023-11-21T21:18:35;93920.63;;;4.61;90.48
53522;BME280;39398;48.382;9.802;2023-11-21T21:23:38;93919.63;;;4.70;90.24
53522;BME280;39398;48.382;9.802;2023-11-21T21:28:39;93934.97;;;4.55;91.37
53522;BME280;39398;48.382;9.802;2023-11-21T21:33:41;93926.91;;;4.59;91.29
53522;BME280;39398;48.382;9.802;2023-11-21T21:38:44;93933.66;;;4.60;91.01
53522;BME280;39398;48.382;9.802;2023-11-21T21:43:45;93936.25;;;4.68;90.41
53522;BME280;39398;48.382;9.802;2023-11-21T21:48:47;93943.31;;;4.66;90.48
53522;BME280;39398;48.382;9.802;2023-11-21T21:53:50;93939.31;;;4.63;90.26
53522;BME280;39398;48.382;9.802;2023-11-21T21:58:52;93940.09;;;4.64;90.37
53522;BME280;39398;48.382;9.802;2023-11-21T22:03:54;93949.13;;;4.60;90.25
53522;BME280;39398;48.382;9.802;2023-11-21T22:08:57;93952.34;;;4.62;90.16
53522;BME280;39398;48.382;9.802;2023-11-21T22:13:59;93938.81;;;4.60;89.87
53522;BME280;39398;48.382;9.802;2023-11-21T22:19:00;93940.59;;;4.59;89.91
53522;BME280;39398;48.382;9.802;2023-11-21T22:24:04;93947.34;;;4.60;89.89
53522;BME280;39398;48.382;9.802;2023-11-21T22:29:05;93944.28;;;4.56;90.11
53522;BME280;39398;48.382;9.802;2023-11-21T22:34:07;93952.22;;;4.47;91.09
53522;BME280;39398;48.382;9.802;2023-11-21T22:39:10;93954.44;;;4.42;91.54
53522;BME280;39398;48.382;9.802;2023-11-21T22:44:12;93942.22;;;4.36;91.70
53522;BME280;39398;48.382;9.802;2023-11-21T22:49:14;93950.28;;;4.41;91.61
53522;BME280;39398;48.382;9.802;2023-11-21T22:54:17;93945.44;;;4.38;91.81
53522;BME280;39398;48.382;9.802;2023-11-21T22:59:19;93948.97;;;4.37;91.77
53522;BME280;39398;48.382;9.802;2023-11-21T23:04:21;93962.34;;;4.40;91.38
53522;BME280;39398;48.382;9.802;2023-11-21T23:09:24;93958.31;;;4.46;91.25
53522;BME280;39398;48.382;9.802;2023-11-21T23:14:25;93960.88;;;4.46;91.07
53522;BME280;39398;48.382;9.802;2023-11-21T23:19:27;93957.19;;;4.48;91.35
53522;BME280;39398;48.382;9.802;2023-11-21T23:24:30;93966.69;;;4.48;91.16
53522;BME280;39398;48.382;9.802;2023-11-21T23:29:32;93974.88;;;4.43;91.44
53522;BME280;39398;48.382;9.802;2023-11-21T23:34:33;93970.06;;;4.48;91.67
53522;BME280;39398;48.382;9.802;2023-11-21T23:39:36;93974.09;;;4.43;92.15
53522;BME280;39398;48.382;9.802;2023-11-21T23:44:38;93965.06;;;4.47;91.84
53522;BME280;39398;48.382;9.802;2023-11-21T23:49:39;93970.53;;;4.44;92.49
53522;BME280;39398;48.382;9.802;2023-11-21T23:54:42;93977.31;;;4.45;92.43
53522;BME280;39398;48.382;9.802;2023-11-21T23:59:44;93978.44;;;4.50;92.48
